Bennington, Indiana
Current Conditions -  °F | °C
As of 11:52 PM on Sunday 19 Oct 2014 (Local Time) from KCVG Reporting Station
Broken Clouds Broken Clouds  
Wind Chill: 42°   Ceiling: 21000
Heat Index: 44°   Visibility: 8mi
Dew Point: 40°   Wind: 5mph
Humidity: 85%   Direction: 210°SSW
Pressure: 30.06"   Gusts: NA
Location:  38.86°N, 85.14°W
Report Text: KCVG 200352Z 21004KT 8SM FEW180 BKN210 BKN250 07/04 A3006 RMK AO2 SLP179 T00670044
Loading
Personal Weather Stations






























Interactive Weather Map
Tropical Storm Tracking
New forecast layout! Learn more

10-Day Weather Forecast

Advertisements
Track Severe Weather on mobile